首页
METAR-TAF:

METAR-TAF

机场 :

High Level, 艾伯塔, 加拿大

纬度: 58-37N, 经度: 117-10W, 海拔: 338米

当前天气观测

该预报发布于1小时和17分钟前的03:00 UTC
温度 18°C
湿度 30%
气压 1001 hPa
能見度: 14.5公里
天空无云

METAR: CYOJ 250300Z AUTO /////KT 9SM CLR 18/00 A2957 RMK SLP024 DENSITY ALT 2200FT

时间: 22:17 (04:17 UTC)

预报

该预报发布于3小时和37分钟前的00:40 UTC
预报有效从25日的 01点(UTC)到 25日的 13点(UTC)
风速8节,风向东南
能見度: 10公里
少量云层高于7000英尺
从 25日的 0600点(UTC)
风速3节,风向多变
能見度: 10公里
天空无云

TAF: CYOJ 250040Z 2501/2513 13008KT P6SM FEW070 FM250600 VRB03KT P6SM SKC RMK NXT FCST BY 250700Z

超过4000个机场的气象观测和天气预报(METAR&TAF报告)。

可查询的气象台以黄色和红色小点在地图上表示。

将鼠标移到小点上方,可查看气象台名称。

然后点击查看天气观测和预报。

如需切换地图:点击带黑十字的绿色按钮放大地图;点击带横线的绿色按钮缩小地图;或者点击绿色箭头查看邻近地区的地图。


METAR-TAF: